Archer, Florida
Current Conditions -  °F | °C
As of 11:06 AM on Sunday 21 Dec 2014 (Local Time) from KGNV Reporting Station
Light Rain Light Rain  
Wind Chill: 60°   Ceiling: 400
Heat Index: 60°   Visibility: 2.5mi
Dew Point: 59°   Wind: 6mph
Humidity: 96%   Direction: 60°ENE
Pressure: 30.13"   Gusts: NA
Location:  29.53°N, 82.52°W
Report Text: KGNV 211606Z 06005KT 2 1/2SM -RA BR OVC004 16/15 A3013 RMK AO2 P0000 T01560150
Loading
Personal Weather Stations






























Interactive Weather Map New forecast layout! Learn more

10-Day Weather Forecast

Advertisements
Track Severe Weather on mobile